Bowersville, Ohio
Current Conditions -  °F | °C
As of 8:54 PM on Wednesday 22 Oct 2014 (Local Time) from KILN Reporting Station
Overcast Overcast  
Wind Chill: 44°   Ceiling: 2000
Heat Index: 47°   Visibility: 10mi
Dew Point: 39°   Wind: 7mph
Humidity: 74%   Direction: 10°N
Pressure: 30.27"   Gusts: NA
Location:  39.58°N, 83.72°W
Report Text: KILN 230054Z AUTO 01006KT 10SM OVC020 08/04 A3027 RMK AO2 SLP266 T00830039
Loading
Personal Weather Stations






























Interactive Weather Map
Tropical Storm Tracking
New forecast layout! Learn more

10-Day Weather Forecast

Advertisements
Track Severe Weather on mobile